Latest METARs, TAFs and NOTAMs for FALA


---------------------------------------------------------------------------
	(OBSERVATIONS)
FALA 190900Z 30004KT 230V360 9999 FEW035 22/14 Q1023 NOSIG=
FALA 190843Z 33004KT 260V050 9999 FEW030 23/14 Q1023 NOSIG=
FALA 190800Z 32004KT 210V360 CAVOK 20/14 Q1023 NOSIG=
FALA 190744Z VRB02KT CAVOK 21/14 Q1023 NOSIG=
FALA 190700Z 00000KT CAVOK 19/13 Q1023 NOSIG=
---------------------------------------------------------------------------
	(TERMINAL AREA FORECAST)
AMD FALA 190619Z 1906/2006 VRB03KT CAVOK
    BECMG 1906/1908 26006KT
    BECMG 1910/1912 BKN035
    PROB30 TEMPO 1913/1918 -TSRA FEW035CB
    BECMG 1917/1919 VRB03KT
    BECMG 2002/2004 SCT014
    TX25/1912Z TN13/2004Z=
---------------------------------------------------------------------------
	(NOTAMS)


FALA A1170/18 ATIS 127.65 MHZ U/S. 23 MAR 12:57 2018 UNTIL 30
    APR 15:00 2018 ESTIMATED. CREATED: 23 MAR 12:59 2018

FALA A1385/18 ALONG R511, RIVERGLEN (255823.63S 0280037.35E ,
    255827.47S 0280038.35E, 255833S 0280041E): 3 CRANES (200FT
    AGL) WITH DAY AND NGT MARKINGS ERECTED. 01 APR 08:04 2018
    UNTIL 30 APR 10:00 2018 ESTIMATED. CREATED: 01 APR 08:04
    2018

FALA A1486/18 CRANE (255602S 0275530E) ERECTED NORTH OF TERMINAL
    BLDG (37M AGL). 06 APR 06:14 2018 UNTIL 02 JUL 14:00 2018
    ESTIMATED. CREATED: 06 APR 06:15 2018

FALA A1626/18 ATC TRG ON TWR 124.0 MHZ TAKING PLACE. 16 APR 09:24
    2018 UNTIL 13 JUL 09:00 2018 ESTIMATED. CREATED: 16 APR 09:28
    2018

FALA A1629/18 ATC TRG ON SMC 121.65 MHZ TAKING PLACE. 16 APR
    09:54 2018 UNTIL 16 JUN 10:00 2018 ESTIMATED. CREATED: 16
    APR 09:58 2018

FALA A1657/18 STEYN CITY CENTRE, DIEPSLOOT, JOHANNESBURG (255821S
    0280044E, 255822S 0280047E): 2X CRANES (155FT AGL) WITH DAY
    AND NGT MARKINGS ERECTED. 17 APR 08:34 2018 UNTIL 13 JUL
    10:00 2018 ESTIMATED. CREATED: 17 APR 08:34 2018

FALA A1663/18 OAKFIELD FARM, MULDERSDRIFT (260200S 0275236E):
    RELEASE OF 200 HELIUM BALLOONS TAKING PLACE. GND - UNL, 01
    MAY 13:30 2018 UNTIL 01 MAY 14:00 2018. CREATED: 17 APR 15:35
    2018

---------------------------------------------------------------------------